createdAt,value
2022-10-19T00:00:29.599Z,453.09091
2022-10-19T00:05:31.214Z,457.33333
2022-10-19T00:10:32.837Z,453.09091
2022-10-19T00:15:34.492Z,444.81301
2022-10-19T00:20:36.105Z,461.64706
2022-10-19T00:25:37.718Z,461.64706
2022-10-19T00:30:39.359Z,461.64706
2022-10-19T00:35:40.990Z,470.49573
2022-10-19T00:40:42.589Z,466.0339
2022-10-19T00:45:44.186Z,461.64706
2022-10-19T00:50:45.803Z,479.65217
2022-10-19T00:55:47.393Z,509.13761
2022-10-19T01:00:49.020Z,504
2022-10-19T01:05:50.698Z,484.35088
2022-10-19T01:10:52.324Z,494
2022-10-19T01:20:55.589Z,514.37037
2022-10-19T01:25:57.171Z,514.37037
2022-10-19T01:30:58.797Z,530.66667
2022-10-19T01:36:00.405Z,553.90099
2022-10-19T01:41:01.988Z,553.90099
2022-10-19T01:46:03.623Z,547.92157
2022-10-19T01:51:05.197Z,547.92157
2022-10-19T01:56:06.792Z,542.05825
2022-10-19T02:01:08.484Z,542.05825
2022-10-19T02:06:10.184Z,547.92157
2022-10-19T02:11:11.813Z,519.70093
2022-10-19T02:16:13.393Z,519.70093
2022-10-19T02:21:15.024Z,525.13208
2022-10-19T02:26:16.644Z,519.70093
2022-10-19T02:31:18.250Z,519.70093
2022-10-19T02:36:19.866Z,519.70093
2022-10-19T02:41:21.505Z,514.37037
2022-10-19T02:46:23.112Z,509.13761
2022-10-19T02:51:24.704Z,525.13208
2022-10-19T02:56:26.334Z,525.13208
2022-10-19T03:01:27.948Z,519.70093
2022-10-19T03:06:29.547Z,536.30769
2022-10-19T03:11:31.141Z,547.92157
2022-10-19T03:16:32.741Z,530.66667
2022-10-19T03:21:34.466Z,525.13208
2022-10-19T03:26:36.061Z,553.90099
2022-10-19T03:31:37.685Z,553.90099
2022-10-19T03:36:39.540Z,542.05825
2022-10-19T03:41:41.115Z,542.05825
2022-10-19T03:46:43.035Z,547.92157
2022-10-19T03:51:44.654Z,542.05825
2022-10-19T03:56:46.230Z,547.92157
2022-10-19T04:01:48.005Z,525.13208
2022-10-19T04:06:49.624Z,525.13208
2022-10-19T04:11:51.237Z,519.70093
2022-10-19T04:16:52.851Z,519.70093
2022-10-19T04:21:54.514Z,525.13208
2022-10-19T04:26:56.128Z,519.70093
2022-10-19T04:31:57.928Z,519.70093
2022-10-19T04:36:59.695Z,530.66667
2022-10-19T04:42:01.358Z,542.05825
2022-10-19T04:47:02.995Z,553.90099
2022-10-19T04:52:04.661Z,566.22222
2022-10-19T04:57:06.325Z,547.92157
2022-10-19T05:02:07.919Z,536.30769
2022-10-19T05:07:09.525Z,536.30769
2022-10-19T05:12:11.300Z,542.05825
2022-10-19T05:17:13.059Z,553.90099
2022-10-19T05:22:14.700Z,536.30769
2022-10-19T05:27:16.345Z,530.66667
2022-10-19T05:32:17.953Z,536.30769
2022-10-19T05:37:19.653Z,530.66667
2022-10-19T05:42:21.327Z,536.30769
2022-10-19T05:47:26.175Z,553.90099
2022-10-19T05:52:31.085Z,547.92157
2022-10-19T05:57:33.041Z,542.05825
2022-10-19T06:02:34.914Z,553.90099
2022-10-19T06:07:36.983Z,566.22222
2022-10-19T06:12:38.713Z,560
2022-10-19T06:17:40.333Z,572.57143
2022-10-19T06:22:41.958Z,579.05155
2022-10-19T06:27:43.594Z,579.05155
2022-10-19T06:32:45.294Z,572.57143
2022-10-19T06:37:46.952Z,572.57143
2022-10-19T06:42:48.517Z,585.66667
2022-10-19T06:47:50.106Z,599.31915
2022-10-19T06:52:51.747Z,599.31915
2022-10-19T06:57:53.265Z,592.42105
2022-10-19T07:02:54.927Z,579.05155
2022-10-19T07:07:56.655Z,579.05155
2022-10-19T07:12:58.379Z,579.05155
2022-10-19T07:18:00.083Z,585.66667
2022-10-19T07:23:01.722Z,585.66667
2022-10-19T07:28:03.344Z,599.31915
2022-10-19T07:33:04.949Z,599.31915
2022-10-19T07:38:06.579Z,606.36559
2022-10-19T07:43:08.192Z,599.31915
2022-10-19T07:48:09.805Z,599.31915
2022-10-19T07:53:11.400Z,606.36559
2022-10-19T07:58:13.011Z,613.56522
2022-10-19T08:04:31.661Z,613.56522
2022-10-19T08:09:53.292Z,613.56522
2022-10-19T08:14:55.668Z,606.36559
2022-10-19T08:19:18.409Z,613.56522
2022-10-19T08:24:20.037Z,606.36559
2022-10-19T08:29:21.636Z,592.42105
2022-10-19T08:34:23.240Z,613.56522
2022-10-19T08:39:24.862Z,613.56522
2022-10-19T08:44:26.500Z,613.56522
2022-10-19T08:49:28.090Z,620.92308
2022-10-19T08:54:29.948Z,628.44444
2022-10-19T08:59:31.590Z,628.44444
2022-10-19T09:04:33.210Z,628.44444
2022-10-19T09:09:34.903Z,628.44444
2022-10-19T09:14:36.535Z,636.13483
2022-10-19T09:19:38.120Z,652.04598
2022-10-19T09:24:39.705Z,660.27907
2022-10-19T09:29:41.235Z,644
2022-10-19T09:34:42.812Z,652.04598
2022-10-19T09:45:09.745Z,660.27907
2022-10-19T09:50:11.351Z,668.70588
2022-10-19T09:55:13.085Z,668.70588
2022-10-19T10:00:14.745Z,660.27907
2022-10-19T10:05:16.462Z,668.70588
2022-10-19T10:10:18.299Z,677.33333
2022-10-19T10:15:20.479Z,668.70588
2022-10-19T10:20:22.285Z,677.33333
2022-10-19T10:25:24.028Z,686.16867
2022-10-19T10:30:25.812Z,695.21951
2022-10-19T10:35:27.473Z,677.33333
2022-10-19T10:40:29.182Z,686.16867
2022-10-19T10:45:31.151Z,695.21951
2022-10-19T10:50:32.745Z,695.21951
2022-10-19T10:55:34.538Z,695.21951
2022-10-19T11:00:36.330Z,704.49383
2022-10-19T11:05:38.056Z,714
2022-10-19T11:10:39.911Z,695.21951
2022-10-19T11:15:41.602Z,704.49383
2022-10-19T11:20:43.361Z,704.49383
2022-10-19T11:25:45.025Z,695.21951
2022-10-19T11:30:49.874Z,695.21951
2022-10-19T11:35:52.313Z,714
2022-10-19T11:46:01.551Z,677.33333
2022-10-19T11:51:16.897Z,686.16867
2022-10-19T11:56:25.230Z,695.21951
2022-10-19T12:01:36.726Z,686.16867
2022-10-19T12:06:38.527Z,677.33333
2022-10-19T12:11:40.345Z,668.70588
2022-10-19T12:16:42.016Z,644
2022-10-19T12:21:43.606Z,644
2022-10-19T12:26:45.433Z,668.70588
2022-10-19T12:31:47.144Z,677.33333
2022-10-19T12:36:48.785Z,660.27907
2022-10-19T12:41:50.469Z,660.27907
2022-10-19T12:46:53.851Z,668.70588
2022-10-19T12:51:57.241Z,686.16867
2022-10-19T12:56:58.916Z,686.16867
2022-10-19T13:02:00.678Z,686.16867
2022-10-19T13:07:02.309Z,695.21951
2022-10-19T13:12:04.195Z,677.33333
2022-10-19T13:17:06.186Z,677.33333
2022-10-19T13:22:08.061Z,677.33333
2022-10-19T13:27:09.797Z,677.33333
2022-10-19T13:32:11.609Z,677.33333
2022-10-19T13:37:13.327Z,677.33333
2022-10-19T13:42:14.940Z,677.33333
2022-10-19T13:47:16.690Z,652.04598
2022-10-19T13:52:18.339Z,636.13483
2022-10-19T13:57:20.013Z,628.44444
2022-10-19T14:02:21.858Z,613.56522
2022-10-19T14:07:23.708Z,628.44444
2022-10-19T14:12:25.531Z,636.13483
2022-10-19T14:17:27.427Z,620.92308
2022-10-19T14:22:29.016Z,644
2022-10-19T14:27:30.671Z,660.27907
2022-10-19T14:32:32.468Z,677.33333
2022-10-19T14:37:34.424Z,686.16867
2022-10-19T14:42:36.681Z,677.33333
2022-10-19T14:47:38.702Z,677.33333
2022-10-19T14:52:40.375Z,677.33333
2022-10-19T14:57:42.139Z,668.70588
2022-10-19T15:02:43.991Z,668.70588
2022-10-19T15:07:45.598Z,686.16867
2022-10-19T15:12:47.226Z,677.33333
2022-10-19T15:17:49.101Z,686.16867
2022-10-19T15:22:50.695Z,695.21951
2022-10-19T15:27:52.640Z,686.16867
2022-10-19T15:32:54.817Z,677.33333
2022-10-19T15:37:56.648Z,686.16867
2022-10-19T15:42:58.387Z,677.33333
2022-10-19T15:48:00.105Z,660.27907
2022-10-19T15:53:01.938Z,668.70588
2022-10-19T15:58:03.564Z,695.21951
2022-10-19T16:03:05.333Z,677.33333
2022-10-19T16:08:10.096Z,677.33333
2022-10-19T16:13:13.983Z,668.70588
2022-10-19T16:18:15.583Z,668.70588
2022-10-19T16:23:17.464Z,677.33333
2022-10-19T16:28:19.624Z,660.27907
2022-10-19T16:33:21.268Z,613.56522
2022-10-19T16:38:23.013Z,636.13483
2022-10-19T16:43:24.839Z,620.92308
2022-10-19T16:48:26.823Z,620.92308
2022-10-19T16:53:28.499Z,628.44444
2022-10-19T16:58:30.130Z,644
2022-10-19T17:03:31.843Z,644
2022-10-19T17:08:36.823Z,652.04598
2022-10-19T17:13:39.044Z,652.04598
2022-10-19T17:18:40.777Z,668.70588
2022-10-19T17:23:42.499Z,652.04598
2022-10-19T17:28:44.446Z,636.13483
2022-10-19T17:33:46.036Z,677.33333
2022-10-19T17:38:47.675Z,668.70588
2022-10-19T17:43:49.387Z,668.70588
2022-10-19T17:48:51.180Z,686.16867
2022-10-19T17:53:52.852Z,686.16867
2022-10-19T17:58:54.500Z,695.21951
2022-10-19T18:03:56.104Z,677.33333
2022-10-19T18:08:57.919Z,668.70588
2022-10-19T18:13:59.752Z,668.70588
2022-10-19T18:19:01.377Z,660.27907
2022-10-19T18:24:02.979Z,636.13483
2022-10-19T18:29:04.744Z,636.13483
2022-10-19T18:34:06.439Z,606.36559
2022-10-19T18:39:08.177Z,592.42105
2022-10-19T18:44:09.793Z,560
2022-10-19T18:49:11.388Z,542.05825
2022-10-19T18:54:13.060Z,536.30769
2022-10-19T18:59:14.954Z,547.92157
2022-10-19T19:04:17.142Z,553.90099
2022-10-19T19:09:18.945Z,566.22222
2022-10-19T19:14:20.975Z,547.92157
2022-10-19T19:19:23.096Z,553.90099
2022-10-19T19:24:25.184Z,542.05825
2022-10-19T19:29:27.257Z,530.66667
2022-10-19T19:34:29.319Z,530.66667
2022-10-19T19:39:31.315Z,519.70093
2022-10-19T19:44:33.380Z,519.70093
2022-10-19T19:49:35.483Z,530.66667
2022-10-19T19:54:37.261Z,542.05825
2022-10-19T19:59:39.257Z,514.37037
2022-10-19T20:04:41.937Z,514.37037
2022-10-19T20:09:43.661Z,553.90099
2022-10-19T20:14:45.342Z,525.13208
2022-10-19T20:19:47.043Z,525.13208
2022-10-19T20:24:48.722Z,547.92157
2022-10-19T20:28:08.442Z,547.92157
2022-10-19T20:33:10.775Z,542.05825
2022-10-19T20:38:12.888Z,547.92157
2022-10-19T20:43:14.679Z,560
2022-10-19T20:48:16.755Z,606.36559
2022-10-19T20:53:18.448Z,592.42105
2022-10-19T20:58:20.569Z,620.92308
2022-10-19T21:03:22.337Z,620.92308
2022-10-19T21:08:24.035Z,613.56522
2022-10-19T21:13:26.000Z,620.92308
2022-10-19T21:18:28.359Z,636.13483
2022-10-19T21:23:30.086Z,636.13483
2022-10-19T21:28:32.019Z,652.04598
2022-10-19T21:33:34.010Z,628.44444
2022-10-19T21:38:36.042Z,613.56522
2022-10-19T21:43:38.105Z,613.56522
2022-10-19T21:48:40.183Z,620.92308
2022-10-19T21:53:42.295Z,644
2022-10-19T21:58:44.292Z,613.56522
2022-10-19T22:03:46.196Z,620.92308
2022-10-19T22:08:49.140Z,599.31915
2022-10-19T22:13:50.930Z,530.66667
2022-10-19T22:18:52.532Z,525.13208
2022-10-19T22:23:54.199Z,519.70093
2022-10-19T22:28:56.130Z,494
2022-10-19T22:33:57.932Z,498.95495
2022-10-19T22:38:59.857Z,484.35088
2022-10-19T22:44:01.607Z,494
2022-10-19T22:49:03.349Z,484.35088
2022-10-19T22:54:05.057Z,489.13274
2022-10-19T22:59:06.722Z,475.03448
2022-10-19T23:04:08.375Z,457.33333
2022-10-19T23:09:10.300Z,466.0339
2022-10-19T23:14:12.397Z,504
2022-10-19T23:19:14.583Z,484.35088
2022-10-19T23:24:16.264Z,504
2022-10-19T23:29:17.870Z,489.13274
2022-10-19T23:34:19.946Z,519.70093
2022-10-19T23:39:21.643Z,530.66667
2022-10-19T23:44:23.258Z,484.35088
2022-10-19T23:49:26.001Z,461.64706
2022-10-19T23:54:27.622Z,504
2022-10-19T23:59:29.474Z,494
